Time;durP1;ratioP1;P1;durP2;ratioP2;P2;SDS_P1;SDS_P2;PMS_P1;PMS_P2;Temp;Humidity;BMP_temperature;BMP_pressure;BME280_temperature;BME280_humidity;BME280_pressure;Samples;Min_cycle;Max_cycle;Signal;HPM_P1;HPM_P2
2023/05/06 00:01:56;;;;;;;2.95;0.90;;;18.10;75.10;;;;;;2370728;53;20916;-73
2023/05/06 00:04:23;;;;;;;2.20;0.73;;;18.10;75.20;;;;;;2622790;52;20923;-76
2023/05/06 00:06:50;;;;;;;2.60;1.00;;;18.10;75.30;;;;;;2370437;53;21712;-72
2023/05/06 00:09:16;;;;;;;1.70;0.70;;;18.00;75.20;;;;;;2623588;52;21005;-73
2023/05/06 00:11:42;;;;;;;2.15;0.90;;;18.00;75.30;;;;;;2371221;53;21087;-73
2023/05/06 00:14:09;;;;;;;1.42;0.65;;;18.00;75.40;;;;;;2371595;53;20933;-73
2023/05/06 00:16:35;;;;;;;2.00;0.75;;;18.00;75.40;;;;;;2370749;53;21332;-73
2023/05/06 00:19:01;;;;;;;1.90;0.65;;;17.90;75.30;;;;;;2370787;53;20998;-73
2023/05/06 00:21:29;;;;;;;2.60;0.88;;;17.90;75.40;;;;;;2370843;53;21065;-73
2023/05/06 00:23:55;;;;;;;1.73;0.80;;;17.90;75.40;;;;;;2622976;52;21807;-73
2023/05/06 00:26:21;;;;;;;1.80;0.80;;;17.80;75.40;;;;;;2622827;52;21411;-73
2023/05/06 00:28:48;;;;;;;1.87;0.60;;;17.80;75.40;;;;;;2623711;52;20989;-73
2023/05/06 00:31:17;;;;;;;1.83;0.80;;;17.80;75.40;;;;;;2371028;53;20906;-73
2023/05/06 00:33:43;;;;;;;3.60;0.90;;;17.80;75.40;;;;;;2372351;53;20971;-73
2023/05/06 00:36:10;;;;;;;1.83;1.00;;;17.80;75.50;;;;;;2370110;52;21400;-73
2023/05/06 00:38:36;;;;;;;1.60;0.70;;;17.80;75.50;;;;;;2622528;52;20983;-73
2023/05/06 00:41:04;;;;;;;1.67;0.90;;;17.80;75.50;;;;;;2371011;53;20925;-73
2023/05/06 00:43:32;;;;;;;1.05;0.50;;;17.70;75.40;;;;;;2370616;53;21214;-72
2023/05/06 00:45:58;;;;;;;1.85;0.70;;;17.70;75.40;;;;;;2371033;53;20925;-75
2023/05/06 00:48:24;;;;;;;3.45;0.70;;;17.70;75.60;;;;;;2623465;52;20914;-73
2023/05/06 00:50:50;;;;;;;2.00;0.70;;;17.70;75.60;;;;;;2623524;52;21321;-73
2023/05/06 00:53:22;;;;;;;1.98;0.80;;;17.70;75.60;;;;;;2623618;52;20996;-75
2023/05/06 00:55:50;;;;;;;1.80;0.70;;;17.70;75.60;;;;;;2623764;52;20940;-74
2023/05/06 00:58:19;;;;;;;1.40;0.60;;;17.70;75.70;;;;;;2373056;53;20952;-73
2023/05/06 01:00:45;;;;;;;1.55;0.70;;;17.70;75.80;;;;;;2373777;53;20959;-73
2023/05/06 01:03:11;;;;;;;2.55;0.70;;;17.70;75.80;;;;;;2370346;53;20969;-73
2023/05/06 01:08:30;;;;;;;1.80;0.73;;;17.60;75.70;;;;;;2622413;52;21005;-76
2023/05/06 01:11:01;;;;;;;2.47;0.70;;;17.60;74.80;;;;;;2376844;53;21943;-74
2023/05/06 01:15:25;;;;;;;2.92;0.90;;;17.60;75.60;;;;;;2361090;53;20956;-75
2023/05/06 01:17:52;;;;;;;1.00;0.55;;;17.60;75.60;;;;;;2623591;52;20899;-75
2023/05/06 01:20:20;;;;;;;1.55;0.68;;;17.60;75.80;;;;;;2616181;52;20987;-72
2023/05/06 01:22:48;;;;;;;1.65;0.80;;;17.60;75.90;;;;;;2621399;52;21000;-73
2023/05/06 01:25:19;;;;;;;1.87;0.70;;;17.60;75.80;;;;;;2623066;52;20974;-74
2023/05/06 01:27:45;;;;;;;2.37;0.70;;;17.60;75.80;;;;;;2371686;53;20937;-74
2023/05/06 01:30:12;;;;;;;1.42;0.68;;;17.60;76.00;;;;;;2370930;53;20930;-73
2023/05/06 01:32:58;;;;;;;3.42;0.70;;;17.60;76.00;;;;;;2370734;53;20921;-73
2023/05/06 01:36:06;;;;;;;2.62;0.65;;;17.60;75.60;;;;;;2623436;52;20932;-75
2023/05/06 01:38:36;;;;;;;1.85;0.70;;;17.60;75.40;;;;;;2623856;52;20988;-75
2023/05/06 01:41:07;;;;;;;3.33;0.90;;;17.60;75.90;;;;;;2623456;52;20946;-73
2023/05/06 01:43:38;;;;;;;3.25;0.90;;;17.60;76.00;;;;;;2623266;52;21006;-73
2023/05/06 01:46:06;;;;;;;2.80;1.10;;;17.60;76.00;;;;;;2371145;53;20973;-73
2023/05/06 01:48:33;;;;;;;2.95;1.10;;;17.60;76.10;;;;;;2624008;52;21450;-75
2023/05/06 01:50:59;;;;;;;2.47;1.02;;;17.50;76.10;;;;;;2371172;53;21025;-76
2023/05/06 01:53:26;;;;;;;2.45;1.15;;;17.50;76.10;;;;;;2623657;52;20992;-73
2023/05/06 01:55:53;;;;;;;2.33;1.05;;;17.60;76.30;;;;;;2370847;53;21009;-74
2023/05/06 01:58:19;;;;;;;1.98;0.88;;;17.60;76.30;;;;;;2371106;53;21256;-72
2023/05/06 02:00:46;;;;;;;3.47;1.00;;;17.60;76.30;;;;;;2371090;53;21427;-73
2023/05/06 02:03:15;;;;;;;2.22;0.80;;;17.60;76.30;;;;;;2623260;52;20954;-73
2023/05/06 02:05:45;;;;;;;2.12;1.02;;;17.60;76.10;;;;;;2623456;52;20967;-73
2023/05/06 02:08:11;;;;;;;2.10;0.95;;;17.60;76.10;;;;;;2370131;53;20966;-73
2023/05/06 02:10:38;;;;;;;2.90;0.88;;;17.60;76.20;;;;;;2623332;52;20962;-75
2023/05/06 02:13:04;;;;;;;2.28;0.82;;;17.60;76.20;;;;;;2623263;52;21435;-72
2023/05/06 02:15:31;;;;;;;1.92;0.70;;;17.60;76.10;;;;;;2621121;52;20961;-75
2023/05/06 02:17:58;;;;;;;2.00;0.85;;;17.60;76.10;;;;;;2369600;53;20970;-73
2023/05/06 02:20:24;;;;;;;2.22;0.85;;;17.60;76.00;;;;;;2370549;53;20978;-74
2023/05/06 02:22:51;;;;;;;2.33;0.90;;;17.60;75.90;;;;;;2624192;52;20942;-74
2023/05/06 02:25:17;;;;;;;1.85;0.88;;;17.60;75.70;;;;;;2370864;53;20982;-73
2023/05/06 02:27:44;;;;;;;2.00;0.85;;;17.60;75.60;;;;;;2370455;53;21836;-77
2023/05/06 02:30:10;;;;;;;2.37;0.85;;;17.50;75.50;;;;;;2623374;52;20918;-74
2023/05/06 02:32:37;;;;;;;3.12;1.15;;;17.50;75.50;;;;;;2622642;52;20962;-73
2023/05/06 02:35:04;;;;;;;2.80;1.02;;;17.50;75.60;;;;;;2370947;53;20924;-74
2023/05/06 02:37:32;;;;;;;1.92;0.85;;;17.50;75.60;;;;;;2623680;52;20986;-73
2023/05/06 02:39:59;;;;;;;2.87;1.00;;;17.50;75.60;;;;;;2623380;52;21292;-73
2023/05/06 02:42:25;;;;;;;2.87;0.75;;;17.50;75.60;;;;;;2613882;52;20976;-74
2023/05/06 02:44:54;;;;;;;3.47;0.98;;;17.50;75.50;;;;;;2623625;52;20930;-74
2023/05/06 02:47:21;;;;;;;1.83;0.70;;;17.40;75.50;;;;;;2623581;52;21479;-73
2023/05/06 02:49:50;;;;;;;2.50;1.00;;;17.40;75.50;;;;;;2623611;52;20914;-74
2023/05/06 02:52:16;;;;;;;2.35;0.80;;;17.40;75.30;;;;;;2371248;53;20982;-73
2023/05/06 02:54:44;;;;;;;2.33;0.98;;;17.40;75.30;;;;;;2371031;53;20969;-73
2023/05/06 02:57:10;;;;;;;3.30;0.93;;;17.50;75.40;;;;;;2623020;52;20993;-76
2023/05/06 02:59:37;;;;;;;2.62;1.12;;;17.30;75.20;;;;;;2623211;52;21411;-73
2023/05/06 03:02:03;;;;;;;3.05;1.40;;;17.30;75.10;;;;;;2598790;52;1316666;-73
2023/05/06 03:04:32;;;;;;;7.50;3.35;;;17.30;75.10;;;;;;2370515;53;21246;-75
2023/05/06 03:06:58;;;;;;;8.18;3.62;;;17.30;75.00;;;;;;2623655;52;20946;-73
2023/05/06 03:09:24;;;;;;;9.38;4.03;;;17.20;75.00;;;;;;2623608;52;20908;-73
2023/05/06 03:11:51;;;;;;;7.47;2.62;;;17.20;74.90;;;;;;2370351;53;21013;-77
2023/05/06 03:14:17;;;;;;;5.32;2.40;;;17.20;74.90;;;;;;2622617;52;21017;-73
2023/05/06 03:16:43;;;;;;;3.45;1.37;;;17.10;74.70;;;;;;2623072;52;26733;-72
2023/05/06 03:19:10;;;;;;;3.92;1.70;;;17.10;74.60;;;;;;2370148;53;20942;-75
2023/05/06 03:21:37;;;;;;;3.53;1.30;;;17.10;74.70;;;;;;2370346;53;20954;-76
2023/05/06 03:24:03;;;;;;;3.15;1.10;;;17.10;74.70;;;;;;2374040;53;20943;-73
2023/05/06 03:26:30;;;;;;;2.17;0.88;;;17.00;74.60;;;;;;2622323;52;20899;-74
2023/05/06 03:28:56;;;;;;;2.28;1.10;;;17.00;74.60;;;;;;2622662;52;21423;-73
2023/05/06 03:31:22;;;;;;;1.95;0.88;;;16.90;74.50;;;;;;2370106;53;20942;-73
2023/05/06 03:33:50;;;;;;;2.10;0.95;;;16.90;74.50;;;;;;2371096;53;20910;-73
2023/05/06 03:36:17;;;;;;;2.53;0.80;;;16.90;74.40;;;;;;2623461;52;20970;-73
2023/05/06 03:38:43;;;;;;;2.00;0.88;;;16.90;74.50;;;;;;2369892;53;20942;-73
2023/05/06 03:41:10;;;;;;;2.00;0.80;;;16.70;74.20;;;;;;2622884;52;20993;-73
2023/05/06 03:43:36;;;;;;;1.75;0.75;;;16.80;74.30;;;;;;2370380;53;20902;-75
2023/05/06 03:46:03;;;;;;;2.03;0.88;;;16.70;74.10;;;;;;2370625;53;20954;-75
2023/05/06 03:48:30;;;;;;;1.80;0.80;;;16.70;74.10;;;;;;2622025;52;20923;-75
2023/05/06 03:50:57;;;;;;;2.28;1.10;;;16.70;74.20;;;;;;2374114;53;20943;-73
2023/05/06 03:53:23;;;;;;;1.95;0.75;;;16.60;73.90;;;;;;2623050;52;21403;-76
2023/05/06 03:55:50;;;;;;;2.58;1.17;;;16.60;73.90;;;;;;2622274;52;20930;-76
2023/05/06 03:58:16;;;;;;;2.47;0.90;;;16.50;73.80;;;;;;2623314;52;20942;-74
2023/05/06 04:00:42;;;;;;;2.00;0.80;;;16.50;73.80;;;;;;2370481;53;20981;-74
2023/05/06 04:03:10;;;;;;;2.78;1.30;;;16.50;74.50;;;;;;2623048;52;21577;-72
2023/05/06 04:05:37;;;;;;;2.00;0.93;;;16.40;73.60;;;;;;2622745;52;20929;-74
2023/05/06 04:08:03;;;;;;;1.45;0.70;;;16.30;73.70;;;;;;2370636;53;20898;-73
2023/05/06 04:10:29;;;;;;;2.28;0.98;;;16.30;73.70;;;;;;2622990;52;21497;-73
2023/05/06 04:12:56;;;;;;;3.15;0.80;;;16.30;73.80;;;;;;2623604;52;20997;-73
2023/05/06 04:15:23;;;;;;;1.90;0.90;;;16.20;73.80;;;;;;2370469;53;20930;-74
2023/05/06 04:17:49;;;;;;;2.60;1.17;;;16.20;73.90;;;;;;2622149;52;20977;-75
2023/05/06 04:20:15;;;;;;;1.80;0.80;;;16.10;73.90;;;;;;2623261;52;21047;-74
2023/05/06 04:22:42;;;;;;;1.62;0.85;;;16.10;74.10;;;;;;2370708;53;21505;-75
2023/05/06 04:25:09;;;;;;;3.42;0.93;;;16.10;74.10;;;;;;2623179;52;20934;-73
2023/05/06 04:27:35;;;;;;;5.55;1.15;;;16.00;74.00;;;;;;2622718;52;21356;-73
2023/05/06 04:30:05;;;;;;;2.40;1.30;;;16.00;74.10;;;;;;2622941;52;20912;-73
2023/05/06 04:32:32;;;;;;;3.08;1.30;;;16.00;74.20;;;;;;2370539;53;21700;-73
2023/05/06 04:34:59;;;;;;;4.07;1.40;;;15.90;74.30;;;;;;2623599;52;20950;-73
2023/05/06 04:37:27;;;;;;;3.05;1.20;;;15.90;74.30;;;;;;2374604;53;20976;-73
2023/05/06 04:39:54;;;;;;;2.45;1.20;;;15.90;74.40;;;;;;2610416;52;20939;-73
2023/05/06 04:42:20;;;;;;;3.95;1.10;;;15.90;74.50;;;;;;2614019;52;21826;-74
2023/05/06 04:44:47;;;;;;;2.95;1.23;;;15.90;74.60;;;;;;2374364;53;21023;-75
2023/05/06 04:47:14;;;;;;;2.35;1.30;;;15.90;74.70;;;;;;2605707;52;20965;-74
2023/05/06 04:49:40;;;;;;;2.33;1.10;;;15.80;74.70;;;;;;2618038;52;20987;-73
2023/05/06 04:52:07;;;;;;;2.03;1.10;;;15.80;74.70;;;;;;2365538;53;20933;-73
2023/05/06 04:54:33;;;;;;;2.30;1.10;;;15.80;74.90;;;;;;2621902;52;21688;-76
2023/05/06 04:57:00;;;;;;;2.60;1.20;;;15.80;74.90;;;;;;2623987;52;21042;-73
2023/05/06 04:59:26;;;;;;;2.87;1.20;;;15.90;75.20;;;;;;2369942;53;20986;-76
2023/05/06 05:01:52;;;;;;;3.20;1.25;;;15.80;75.20;;;;;;2370870;53;21269;-73
2023/05/06 05:04:19;;;;;;;3.65;1.42;;;15.90;75.40;;;;;;2370676;53;20977;-74
2023/05/06 05:06:46;;;;;;;3.03;1.37;;;15.80;75.40;;;;;;2371003;53;20989;-73
2023/05/06 05:09:12;;;;;;;4.37;1.60;;;15.90;75.60;;;;;;2623366;52;20962;-73
2023/05/06 05:11:43;;;;;;;3.25;1.48;;;15.90;75.70;;;;;;2370371;53;21045;-74
2023/05/06 05:14:09;;;;;;;2.65;1.30;;;15.90;75.90;;;;;;2623637;52;21430;-77
2023/05/06 05:16:38;;;;;;;3.00;1.67;;;15.90;75.90;;;;;;2370968;53;21642;-74
2023/05/06 05:19:07;;;;;;;2.72;1.30;;;15.90;76.00;;;;;;2623410;52;21732;-74
2023/05/06 05:21:35;;;;;;;4.43;1.20;;;15.90;76.10;;;;;;2622898;52;20981;-73
2023/05/06 05:24:01;;;;;;;3.40;1.70;;;16.00;76.40;;;;;;2370719;53;20955;-74
2023/05/06 05:26:27;;;;;;;3.47;1.90;;;16.00;76.50;;;;;;2623676;52;21237;-74
2023/05/06 05:28:54;;;;;;;2.78;1.40;;;16.00;76.60;;;;;;2371009;53;20914;-77
2023/05/06 05:31:21;;;;;;;3.60;1.90;;;16.10;76.80;;;;;;2371404;53;21348;-74
2023/05/06 05:33:47;;;;;;;3.42;1.60;;;16.10;76.90;;;;;;2374298;53;21059;-74
2023/05/06 05:36:14;;;;;;;2.85;1.45;;;16.10;77.00;;;;;;2622695;52;20954;-74
2023/05/06 05:38:41;;;;;;;2.87;1.60;;;16.10;77.10;;;;;;2370797;53;21404;-76
2023/05/06 05:41:07;;;;;;;2.92;1.65;;;16.30;77.30;;;;;;2371654;53;21674;-75
2023/05/06 05:43:34;;;;;;;3.58;2.00;;;16.20;77.30;;;;;;2370921;53;21749;-74
2023/05/06 05:46:01;;;;;;;3.85;1.98;;;16.30;77.40;;;;;;2371098;53;20939;-74
2023/05/06 05:48:27;;;;;;;3.65;1.98;;;16.30;77.60;;;;;;2623546;52;20969;-75
2023/05/06 05:50:58;;;;;;;4.10;2.08;;;16.40;77.70;;;;;;2622671;52;21728;-74
2023/05/06 05:53:24;;;;;;;3.40;2.10;;;16.40;77.80;;;;;;2352180;53;20966;-73
2023/05/06 05:55:51;;;;;;;3.70;2.22;;;16.50;78.00;;;;;;2622812;52;20957;-73
2023/05/06 05:58:18;;;;;;;3.80;2.20;;;16.50;78.00;;;;;;2623790;52;20930;-74
2023/05/06 06:00:44;;;;;;;7.05;2.00;;;16.60;78.20;;;;;;2371185;53;21006;-76
2023/05/06 06:03:14;;;;;;;4.00;2.03;;;16.60;78.10;;;;;;2623501;52;20918;-74
2023/05/06 06:05:40;;;;;;;3.10;1.77;;;16.60;78.10;;;;;;2623409;52;20982;-74
2023/05/06 06:08:07;;;;;;;2.95;1.67;;;16.70;78.20;;;;;;2623756;52;21359;-74
2023/05/06 06:10:33;;;;;;;3.50;2.10;;;16.80;78.20;;;;;;2623595;52;20922;-73
2023/05/06 06:13:00;;;;;;;4.15;2.00;;;16.80;78.20;;;;;;2371620;53;20982;-75
2023/05/06 06:15:26;;;;;;;3.22;1.80;;;16.90;78.20;;;;;;2622646;52;21106;-74
2023/05/06 06:17:53;;;;;;;3.40;1.85;;;16.90;78.30;;;;;;2605803;52;21478;-75
2023/05/06 06:20:20;;;;;;;3.37;1.83;;;17.00;78.50;;;;;;2370570;53;20954;-75
2023/05/06 06:22:48;;;;;;;4.15;1.80;;;17.00;78.50;;;;;;2624397;52;20997;-73
2023/05/06 06:25:14;;;;;;;4.07;2.00;;;17.10;78.70;;;;;;2623970;52;21309;-74
2023/05/06 06:27:41;;;;;;;3.70;2.20;;;17.10;78.70;;;;;;2371273;53;20998;-73
2023/05/06 06:30:08;;;;;;;4.62;2.00;;;17.20;78.90;;;;;;2625083;52;20930;-74
2023/05/06 06:32:35;;;;;;;3.20;1.80;;;17.30;79.10;;;;;;2372186;53;21621;-74
2023/05/06 06:35:01;;;;;;;3.60;2.17;;;17.30;79.10;;;;;;2372489;53;20985;-74
2023/05/06 06:37:27;;;;;;;3.65;1.98;;;17.40;79.30;;;;;;2371366;53;20922;-74
2023/05/06 06:39:55;;;;;;;3.28;1.85;;;17.50;79.40;;;;;;2372589;53;21967;-74
2023/05/06 06:42:22;;;;;;;3.67;2.10;;;17.50;79.40;;;;;;2620194;52;20962;-74
2023/05/06 06:44:48;;;;;;;4.62;2.00;;;17.60;79.60;;;;;;2621171;52;21438;-75
2023/05/06 06:47:14;;;;;;;3.78;2.12;;;17.70;79.60;;;;;;2623889;52;21006;-74
2023/05/06 06:49:41;;;;;;;2.95;1.80;;;17.70;79.60;;;;;;2372398;53;20954;-75
2023/05/06 06:52:08;;;;;;;3.35;1.70;;;17.80;79.60;;;;;;2624907;52;20997;-75
2023/05/06 06:54:36;;;;;;;3.90;2.05;;;17.90;79.70;;;;;;2624119;52;20958;-74
2023/05/06 06:57:05;;;;;;;3.70;1.90;;;18.00;79.70;;;;;;2624539;52;20924;-76
2023/05/06 06:59:31;;;;;;;3.65;2.15;;;18.10;79.70;;;;;;2622368;52;20978;-74
2023/05/06 07:01:57;;;;;;;4.18;2.20;;;18.10;79.50;;;;;;2625248;52;20910;-74
2023/05/06 07:04:25;;;;;;;4.70;2.03;;;18.20;79.30;;;;;;2372083;53;21724;-73
2023/05/06 07:06:51;;;;;;;2.97;1.70;;;18.20;79.10;;;;;;2625252;52;21458;-75
2023/05/06 07:09:18;;;;;;;3.83;2.33;;;18.30;79.20;;;;;;2374853;52;20906;-73
2023/05/06 07:11:44;;;;;;;3.53;1.87;;;18.40;79.20;;;;;;2614880;52;20966;-74
2023/05/06 07:14:11;;;;;;;3.75;2.22;;;18.40;79.10;;;;;;2619987;52;22240;-73
2023/05/06 07:16:39;;;;;;;4.55;1.98;;;18.50;79.10;;;;;;2624207;52;21340;-73
2023/05/06 07:19:08;;;;;;;3.97;2.20;;;18.50;78.90;;;;;;2371761;53;21004;-75
2023/05/06 07:21:36;;;;;;;3.50;2.10;;;18.60;79.10;;;;;;2371177;53;20954;-73
2023/05/06 07:24:04;;;;;;;4.12;2.60;;;18.60;79.10;;;;;;2371743;53;20914;-74
2023/05/06 07:26:34;;;;;;;4.90;2.97;;;18.70;79.30;;;;;;2623989;52;20934;-73
2023/05/06 07:29:01;;;;;;;4.82;3.40;;;18.70;79.20;;;;;;2624349;52;20954;-78
2023/05/06 07:31:27;;;;;;;5.03;3.62;;;18.80;79.40;;;;;;2371474;53;20902;-73
2023/05/06 07:33:55;;;;;;;6.37;3.75;;;18.80;79.40;;;;;;2624899;52;20922;-73
2023/05/06 07:36:21;;;;;;;6.68;3.67;;;18.90;79.60;;;;;;2372099;53;20934;-74
2023/05/06 07:38:47;;;;;;;6.32;3.78;;;18.90;79.60;;;;;;2371433;53;20946;-73
2023/05/06 07:41:18;;;;;;;6.12;3.47;;;19.00;79.80;;;;;;2374395;53;20916;-76
2023/05/06 07:43:44;;;;;;;5.22;3.33;;;19.10;79.90;;;;;;2623850;52;20946;-74
2023/05/06 07:46:11;;;;;;;4.62;2.65;;;19.10;79.90;;;;;;2371811;53;20973;-74
2023/05/06 07:48:38;;;;;;;4.40;3.08;;;19.30;80.00;;;;;;2623664;52;20937;-73
2023/05/06 07:51:05;;;;;;;4.07;2.85;;;19.40;79.90;;;;;;2624458;52;20914;-76
2023/05/06 07:53:31;;;;;;;5.47;3.70;;;19.40;79.80;;;;;;2370973;53;20918;-77
2023/05/06 07:56:01;;;;;;;4.22;3.22;;;19.40;79.70;;;;;;2374058;53;20987;-73
2023/05/06 07:58:29;;;;;;;5.80;3.45;;;19.50;79.80;;;;;;2623344;52;21035;-74
2023/05/06 08:00:57;;;;;;;5.45;2.53;;;19.50;79.60;;;;;;2624373;52;20921;-73
2023/05/06 08:03:23;;;;;;;4.07;2.95;;;19.60;79.60;;;;;;2617720;52;21788;-74
2023/05/06 08:05:54;;;;;;;4.05;2.87;;;19.70;79.60;;;;;;2371370;53;21057;-76
2023/05/06 08:08:21;;;;;;;5.12;3.42;;;19.70;79.50;;;;;;2623897;52;20913;-73
2023/05/06 08:10:48;;;;;;;5.47;2.70;;;19.80;79.80;;;;;;2622633;52;20931;-74
2023/05/06 08:13:18;;;;;;;4.97;2.83;;;19.90;80.10;;;;;;2623839;52;20918;-72
2023/05/06 08:15:44;;;;;;;4.05;2.60;;;19.90;80.80;;;;;;2622920;52;20914;-73
2023/05/06 08:18:11;;;;;;;4.18;3.12;;;20.00;80.50;;;;;;2371025;53;20973;-73
2023/05/06 08:20:43;;;;;;;;;;;20.10;80.80;;;;;;2626597;52;21051;-78
2023/05/06 08:23:10;;;;;;;3.40;2.28;;;20.20;79.90;;;;;;2624198;52;20041;-78
2023/05/06 08:25:37;;;;;;;3.60;2.55;;;20.30;80.70;;;;;;2623127;52;20981;-74
2023/05/06 08:28:03;;;;;;;4.28;2.47;;;20.30;80.40;;;;;;2624537;52;21457;-72
2023/05/06 08:30:29;;;;;;;5.40;2.92;;;20.40;80.10;;;;;;2370835;53;21024;-75
2023/05/06 08:32:55;;;;;;;4.40;2.53;;;20.50;79.90;;;;;;2624420;52;20978;-73
2023/05/06 08:35:22;;;;;;;3.20;2.28;;;20.50;79.40;;;;;;2371769;53;21050;-73
2023/05/06 08:37:49;;;;;;;4.35;2.90;;;20.60;79.50;;;;;;2623890;52;20946;-73
2023/05/06 08:40:19;;;;;;;3.78;2.22;;;20.60;79.50;;;;;;2623629;52;20966;-73
2023/05/06 08:42:48;;;;;;;3.80;2.62;;;20.70;79.70;;;;;;2623888;52;20975;-72
2023/05/06 08:45:15;;;;;;;3.83;2.47;;;20.60;80.00;;;;;;2365756;53;21058;-73
2023/05/06 08:47:42;;;;;;;3.78;2.60;;;20.70;80.30;;;;;;2374580;53;20944;-76
2023/05/06 08:50:09;;;;;;;3.72;2.40;;;20.80;80.80;;;;;;2623118;52;21010;-73
2023/05/06 08:52:37;;;;;;;4.28;2.35;;;20.90;81.00;;;;;;2623513;52;20902;-75
2023/05/06 08:55:04;;;;;;;3.75;2.50;;;20.90;80.90;;;;;;2595749;52;20891;-72
2023/05/06 08:57:31;;;;;;;3.50;2.15;;;21.00;81.00;;;;;;2624471;52;20934;-72
2023/05/06 08:59:58;;;;;;;3.92;2.25;;;21.10;80.60;;;;;;2622577;52;20985;-71
2023/05/06 09:02:24;;;;;;;3.83;2.20;;;21.10;80.50;;;;;;2623533;52;20942;-74
2023/05/06 09:04:51;;;;;;;3.25;1.80;;;21.20;80.70;;;;;;2623189;52;21002;-72
2023/05/06 09:07:20;;;;;;;2.70;1.58;;;21.30;80.60;;;;;;2623248;52;20952;-73
2023/05/06 09:09:47;;;;;;;3.60;2.15;;;21.40;80.30;;;;;;2623584;52;20938;-75
2023/05/06 09:12:14;;;;;;;3.75;2.15;;;21.40;80.70;;;;;;2623948;52;20902;-73
2023/05/06 09:14:42;;;;;;;4.45;1.92;;;21.40;80.90;;;;;;2623545;52;20946;-72
2023/05/06 09:17:25;;;;;;;3.50;2.28;;;21.50;81.10;;;;;;2371073;53;21807;-72
2023/05/06 09:19:55;;;;;;;4.25;2.10;;;21.60;80.70;;;;;;2370240;53;20962;-71
2023/05/06 09:22:22;;;;;;;2.70;1.60;;;21.70;80.90;;;;;;2371685;53;20918;-73
2023/05/06 09:24:55;;;;;;;3.65;1.67;;;21.80;81.00;;;;;;2623482;52;21025;-75
2023/05/06 09:27:23;;;;;;;2.65;1.30;;;21.90;80.50;;;;;;2371631;53;21006;-72
2023/05/06 09:30:06;;;;;;;2.70;1.50;;;21.90;79.90;;;;;;2621877;52;21045;-72
2023/05/06 09:32:33;;;;;;;2.85;1.45;;;22.00;78.70;;;;;;2623639;52;20977;-72
2023/05/06 09:35:00;;;;;;;2.90;1.50;;;22.00;79.80;;;;;;2622904;52;21013;-73
2023/05/06 09:37:28;;;;;;;2.90;1.67;;;22.10;79.80;;;;;;2371135;53;20933;-71
2023/05/06 09:39:56;;;;;;;2.80;1.50;;;22.10;79.50;;;;;;2622328;52;21517;-74
2023/05/06 09:42:25;;;;;;;2.90;1.35;;;22.20;79.30;;;;;;2371374;53;20925;-71
2023/05/06 09:44:53;;;;;;;2.75;1.58;;;22.20;79.20;;;;;;2371011;53;21010;-72
2023/05/06 09:47:21;;;;;;;3.12;1.73;;;22.20;79.20;;;;;;2372074;53;21498;-72
2023/05/06 09:49:49;;;;;;;4.37;1.30;;;22.30;79.60;;;;;;2369577;53;21001;-73
2023/05/06 09:52:16;;;;;;;3.53;1.50;;;22.30;78.80;;;;;;2371060;53;20946;-74
2023/05/06 09:54:43;;;;;;;2.42;1.30;;;22.30;78.70;;;;;;2623268;52;20918;-74
2023/05/06 09:57:09;;;;;;;2.85;1.60;;;22.40;78.80;;;;;;2623778;52;21852;-73
2023/05/06 09:59:36;;;;;;;2.70;1.50;;;22.40;78.50;;;;;;2369578;53;20930;-74
2023/05/06 10:02:04;;;;;;;2.75;1.42;;;22.40;78.40;;;;;;2370607;53;20914;-72
2023/05/06 10:04:30;;;;;;;3.58;1.42;;;22.40;78.50;;;;;;2369838;53;20983;-72
2023/05/06 10:06:57;;;;;;;2.70;1.35;;;22.40;78.70;;;;;;2622635;52;21403;-74
2023/05/06 10:09:23;;;;;;;2.55;1.55;;;22.50;78.70;;;;;;2623767;52;20922;-71
2023/05/06 10:11:50;;;;;;;3.15;1.40;;;22.50;79.20;;;;;;2374189;53;21026;-74
2023/05/06 10:14:17;;;;;;;2.75;1.30;;;22.50;79.30;;;;;;2362242;53;20966;-73
2023/05/06 10:16:46;;;;;;;2.53;1.40;;;22.60;79.40;;;;;;2359502;53;21374;-71
2023/05/06 10:19:12;;;;;;;3.28;1.30;;;22.60;79.40;;;;;;2623113;52;20986;-73
2023/05/06 10:21:39;;;;;;;2.40;1.40;;;22.70;79.90;;;;;;2372174;53;21733;-74
2023/05/06 10:24:07;;;;;;;2.58;1.55;;;22.80;80.10;;;;;;2371224;53;21280;-72
2023/05/06 10:26:38;;;;;;;2.42;1.20;;;22.80;80.00;;;;;;2371795;53;20977;-74
2023/05/06 10:29:10;;;;;;;2.53;1.20;;;23.00;80.00;;;;;;2624033;52;20930;-72
2023/05/06 10:31:40;;;;;;;2.58;1.40;;;23.00;79.20;;;;;;2351373;54;21085;-72
2023/05/06 10:34:09;;;;;;;3.20;1.40;;;23.10;79.30;;;;;;2373894;53;21570;-72
2023/05/06 10:36:36;;;;;;;2.30;1.17;;;23.10;79.10;;;;;;2369303;53;20924;-72
2023/05/06 10:39:03;;;;;;;3.83;1.30;;;23.20;78.70;;;;;;2622804;52;20977;-73
2023/05/06 10:41:29;;;;;;;2.25;1.08;;;23.20;78.50;;;;;;2370920;53;20906;-73
2023/05/06 10:43:59;;;;;;;2.87;1.23;;;23.30;78.60;;;;;;2623378;52;20975;-72
2023/05/06 10:46:28;;;;;;;2.53;1.00;;;23.30;78.50;;;;;;2371491;53;20933;-71
2023/05/06 10:50:13;;;;;;;2.28;1.23;;;23.30;78.30;;;;;;2622944;52;21584;-71
2023/05/06 10:52:43;;;;;;;2.60;1.10;;;23.40;76.40;;;;;;2595011;52;21743;-73
2023/05/06 10:58:45;;;;;;;3.47;1.05;;;23.40;78.10;;;;;;2623488;52;21021;-71
2023/05/06 11:01:13;;;;;;;1.95;0.77;;;23.60;77.10;;;;;;2374184;53;21457;-70
2023/05/06 11:03:42;;;;;;;2.60;1.05;;;23.60;78.60;;;;;;2362771;53;21050;-70
2023/05/06 11:06:09;;;;;;;2.47;0.98;;;23.60;77.70;;;;;;2368832;53;20991;-72
2023/05/06 11:08:38;;;;;;;1.85;0.90;;;23.60;78.20;;;;;;2370244;53;20981;-71
2023/05/06 11:12:05;;;;;;;1.65;0.82;;;23.70;77.60;;;;;;2623101;52;20926;-71
2023/05/06 11:14:35;;;;;;;2.33;0.90;;;23.70;75.30;;;;;;2623685;52;20964;-73
2023/05/06 11:17:08;;;;;;;1.50;0.70;;;23.70;77.20;;;;;;2377269;53;20959;-73
2023/05/06 11:19:36;;;;;;;2.15;0.93;;;23.80;77.10;;;;;;2365219;53;20918;-70
2023/05/06 11:22:06;;;;;;;2.00;0.95;;;23.80;77.60;;;;;;2370843;53;21364;-70
2023/05/06 11:24:42;;;;;;;1.92;0.70;;;23.80;77.50;;;;;;2370785;53;20984;-70
2023/05/06 11:27:09;;;;;;;2.17;0.90;;;23.80;75.80;;;;;;2623508;52;21827;-71
2023/05/06 11:29:35;;;;;;;1.70;0.88;;;23.90;77.30;;;;;;2370766;53;20950;-70
2023/05/06 11:32:02;;;;;;;2.05;0.88;;;23.90;77.20;;;;;;2371090;53;20930;-72
2023/05/06 11:34:29;;;;;;;1.87;0.80;;;23.90;77.30;;;;;;2371345;53;20937;-71
2023/05/06 11:37:04;;;;;;;2.60;1.02;;;23.90;77.30;;;;;;2374315;52;21436;-71
2023/05/06 11:39:31;;;;;;;2.25;0.80;;;24.00;76.40;;;;;;2623528;52;20914;-71
2023/05/06 11:42:05;;;;;;;1.80;0.90;;;24.00;77.00;;;;;;2623006;52;20997;-73
2023/05/06 11:44:41;;;;;;;2.47;1.05;;;24.00;75.80;;;;;;2374010;53;21411;-70
2023/05/06 11:47:08;;;;;;;2.17;0.98;;;24.00;75.50;;;;;;2623620;52;21719;-69
2023/05/06 11:49:39;;;;;;;2.35;1.05;;;24.10;77.00;;;;;;2623472;52;20918;-73
2023/05/06 11:52:10;;;;;;;1.53;0.83;;;24.10;76.40;;;;;;2371015;53;20898;-72
2023/05/06 11:54:39;;;;;;;2.95;0.90;;;24.10;76.20;;;;;;2374844;53;20956;-71
2023/05/06 11:57:05;;;;;;;1.92;0.90;;;24.20;76.90;;;;;;2611632;52;20934;-72
2023/05/06 11:59:32;;;;;;;1.95;0.88;;;24.20;76.70;;;;;;2369505;53;21518;-71
2023/05/06 12:02:17;;;;;;;2.20;0.73;;;24.20;76.40;;;;;;2623391;52;20956;-71
2023/05/06 12:04:46;;;;;;;2.17;0.93;;;24.20;74.40;;;;;;2370099;53;20950;-72
2023/05/06 12:07:13;;;;;;;1.42;0.73;;;24.20;76.30;;;;;;2371587;53;20973;-72
2023/05/06 12:09:41;;;;;;;1.75;0.70;;;24.30;76.60;;;;;;2373566;53;21732;-71
2023/05/06 12:12:09;;;;;;;2.00;0.85;;;24.40;76.80;;;;;;2624306;52;20985;-70
2023/05/06 12:14:36;;;;;;;2.47;0.95;;;24.40;76.80;;;;;;2371303;53;20965;-73
2023/05/06 12:17:02;;;;;;;2.00;0.93;;;24.40;76.60;;;;;;2623298;52;21419;-71
2023/05/06 12:19:31;;;;;;;1.77;0.68;;;24.40;76.50;;;;;;2623778;52;20934;-73
2023/05/06 12:22:20;;;;;;;2.12;0.82;;;24.50;76.40;;;;;;2370914;53;21001;-70
2023/05/06 12:24:47;;;;;;;2.12;0.73;;;24.50;74.30;;;;;;2624096;52;21049;-71
2023/05/06 12:27:13;;;;;;;2.05;0.90;;;24.50;76.00;;;;;;2371232;53;21018;-71
2023/05/06 12:29:51;;;;;;;1.48;0.75;;;24.60;76.40;;;;;;2622788;52;21036;-71
2023/05/06 12:32:17;;;;;;;1.67;0.62;;;24.60;74.60;;;;;;2624460;52;21013;-70
2023/05/06 12:34:44;;;;;;;1.92;0.80;;;24.70;76.20;;;;;;2623293;52;20956;-72
2023/05/06 12:37:10;;;;;;;1.98;0.90;;;24.70;76.30;;;;;;2623548;52;20945;-71
2023/05/06 12:39:37;;;;;;;1.85;0.80;;;24.70;76.10;;;;;;2370978;53;20990;-72
2023/05/06 12:42:04;;;;;;;1.45;0.68;;;24.80;76.10;;;;;;2623043;52;20957;-72
2023/05/06 12:44:37;;;;;;;2.22;0.90;;;24.80;75.90;;;;;;2624396;52;20941;-70
2023/05/06 12:47:08;;;;;;;1.75;0.80;;;24.80;74.90;;;;;;2370302;53;20961;-71
2023/05/06 12:50:43;;;;;;;2.72;0.90;;;24.80;75.40;;;;;;2624222;52;20918;-70
2023/05/06 12:53:14;;;;;;;1.50;0.70;;;24.90;73.30;;;;;;2624061;52;20940;-73
2023/05/06 12:55:45;;;;;;;2.28;0.98;;;25.00;76.20;;;;;;2370473;53;21589;-72
2023/05/06 12:58:14;;;;;;;2.47;1.00;;;25.00;76.70;;;;;;2623449;52;21419;-71
2023/05/06 13:00:41;;;;;;;1.92;0.85;;;25.00;75.20;;;;;;2623511;52;20965;-71
2023/05/06 13:03:07;;;;;;;2.28;0.80;;;25.00;75.80;;;;;;2371301;53;21719;-71